createdAt,value
2023-01-31T00:01:40.064Z,53.50
2023-01-31T00:04:11.412Z,53.20
2023-01-31T00:06:41.577Z,53.10
2023-01-31T00:09:11.329Z,53.20
2023-01-31T00:11:39.236Z,53.20
2023-01-31T00:14:07.591Z,53.50
2023-01-31T00:16:35.142Z,53.50
2023-01-31T00:19:02.957Z,53.50
2023-01-31T00:21:31.401Z,53.50
2023-01-31T00:24:00.093Z,53.20
2023-01-31T00:26:32.037Z,53.30
2023-01-31T00:29:01.582Z,53.10
2023-01-31T00:31:30.672Z,53.10
2023-01-31T00:33:58.613Z,53.40
2023-01-31T00:36:35.893Z,53.20
2023-01-31T00:39:05.260Z,53.50
2023-01-31T00:41:32.516Z,53.20
2023-01-31T00:43:59.547Z,53.20
2023-01-31T00:46:27.016Z,52.90
2023-01-31T00:48:55.735Z,53.10
2023-01-31T00:51:25.591Z,53.60
2023-01-31T00:53:53.837Z,53.90
2023-01-31T00:56:23.552Z,53.50
2023-01-31T00:58:50.732Z,53.80
2023-01-31T01:01:21.848Z,53.50
2023-01-31T01:03:51.227Z,53.70
2023-01-31T01:06:19.093Z,53.40
2023-01-31T01:08:46.519Z,53.30
2023-01-31T01:11:28.695Z,53.20
2023-01-31T01:13:56.642Z,53.40
2023-01-31T01:16:36.965Z,53.00
2023-01-31T01:19:06.667Z,53.20
2023-01-31T01:21:39.115Z,53.50
2023-01-31T01:24:18.156Z,53.40
2023-01-31T01:26:46.003Z,53.30
2023-01-31T01:29:13.280Z,53.20
2023-01-31T01:31:40.483Z,53.00
2023-01-31T01:34:12.223Z,53.00
2023-01-31T01:36:39.546Z,53.20
2023-01-31T01:39:11.208Z,53.50
2023-01-31T01:41:39.376Z,53.30
2023-01-31T01:44:44.004Z,53.50
2023-01-31T01:47:17.931Z,53.30
2023-01-31T01:49:47.810Z,53.70
2023-01-31T01:52:16.409Z,53.80
2023-01-31T01:55:03.848Z,53.80
2023-01-31T01:57:37.839Z,53.70
2023-01-31T02:00:14.529Z,53.70
2023-01-31T02:02:43.408Z,53.70
2023-01-31T02:05:15.125Z,53.80
2023-01-31T02:07:43.449Z,53.80
2023-01-31T02:10:17.588Z,53.60
2023-01-31T02:12:46.175Z,53.50
2023-01-31T02:15:13.176Z,53.80
2023-01-31T02:17:40.203Z,53.80
2023-01-31T02:20:16.538Z,53.80
2023-01-31T02:23:07.570Z,53.50
2023-01-31T02:25:54.555Z,53.50
2023-01-31T02:28:47.109Z,53.50
2023-01-31T02:31:17.129Z,53.20
2023-01-31T02:33:58.143Z,53.40
2023-01-31T02:36:53.115Z,54.80
2023-01-31T02:39:39.367Z,53.30
2023-01-31T02:42:14.179Z,53.40
2023-01-31T02:44:59.775Z,53.60
2023-01-31T02:48:04.831Z,53.10
2023-01-31T02:50:46.576Z,53.30
2023-01-31T02:53:28.422Z,53.70
2023-01-31T02:56:20.471Z,53.40
2023-01-31T02:59:00.621Z,54.10
2023-01-31T03:01:31.969Z,53.60
2023-01-31T03:04:11.153Z,53.80
2023-01-31T03:06:38.154Z,53.20
2023-01-31T03:09:05.912Z,53.20
2023-01-31T03:12:06.478Z,53.40
2023-01-31T03:14:47.407Z,53.40
2023-01-31T03:17:33.328Z,53.30
2023-01-31T03:20:29.933Z,53.70
2023-01-31T03:23:23.007Z,54.60
2023-01-31T03:25:50.811Z,52.80
2023-01-31T03:28:25.655Z,52.90
2023-01-31T03:31:29.787Z,52.90
2023-01-31T03:34:05.637Z,53.10
2023-01-31T03:36:38.131Z,53.70
2023-01-31T03:39:44.809Z,53.10
2023-01-31T03:42:54.231Z,53.30
2023-01-31T03:45:33.607Z,53.60
2023-01-31T03:48:03.590Z,53.30
2023-01-31T03:50:42.519Z,53.60
2023-01-31T03:53:32.689Z,53.70
2023-01-31T03:56:08.163Z,53.60
2023-01-31T03:58:41.583Z,53.40
2023-01-31T04:01:09.882Z,53.40
2023-01-31T04:04:03.572Z,53.40
2023-01-31T04:06:30.676Z,53.70
2023-01-31T04:08:58.595Z,53.60
2023-01-31T04:11:27.274Z,53.40
2023-01-31T04:13:54.631Z,54.20
2023-01-31T04:16:21.702Z,53.50
2023-01-31T04:18:48.796Z,53.60
2023-01-31T04:21:15.795Z,53.70
2023-01-31T04:23:42.884Z,53.60
2023-01-31T04:26:10.014Z,53.50
2023-01-31T04:28:37.101Z,53.50
2023-01-31T04:31:04.209Z,53.50
2023-01-31T04:33:31.231Z,53.70
2023-01-31T04:35:58.291Z,54.00
2023-01-31T04:38:25.328Z,53.90
2023-01-31T04:40:52.225Z,53.70
2023-01-31T04:43:19.333Z,53.80
2023-01-31T04:45:46.317Z,54.00
2023-01-31T04:48:13.313Z,54.10
2023-01-31T04:50:40.335Z,54.10
2023-01-31T04:53:08.793Z,53.80
2023-01-31T04:55:36.502Z,53.70
2023-01-31T04:58:05.700Z,53.50
2023-01-31T05:00:33.658Z,54.30
2023-01-31T05:03:01.391Z,53.50
2023-01-31T05:05:28.450Z,53.60
2023-01-31T05:07:55.368Z,54.00
2023-01-31T05:10:22.522Z,54.20
2023-01-31T05:12:49.428Z,53.30
2023-01-31T05:15:16.590Z,53.20
2023-01-31T05:17:43.595Z,53.10
2023-01-31T05:20:11.399Z,53.30
2023-01-31T05:22:38.317Z,53.80
2023-01-31T05:25:05.990Z,53.40
2023-01-31T05:27:33.617Z,53.10
2023-01-31T05:30:01.069Z,53.10
2023-01-31T05:32:28.592Z,53.20
2023-01-31T05:34:55.583Z,53.50
2023-01-31T05:37:22.561Z,53.90
2023-01-31T05:39:49.479Z,53.20
2023-01-31T05:42:16.540Z,52.90
2023-01-31T05:44:43.530Z,52.50
2023-01-31T05:47:10.453Z,53.10
2023-01-31T05:49:37.408Z,53.20
2023-01-31T05:52:04.360Z,53.00
2023-01-31T05:54:31.421Z,53.20
2023-01-31T05:56:58.343Z,53.80
2023-01-31T05:59:26.452Z,54.10
2023-01-31T06:01:54.449Z,54.60
2023-01-31T06:04:21.524Z,54.80
2023-01-31T06:06:48.492Z,54.40
2023-01-31T06:09:15.628Z,54.40
2023-01-31T06:11:42.663Z,54.40
2023-01-31T06:14:10.175Z,54.80
2023-01-31T06:16:37.242Z,55.20
2023-01-31T06:19:04.360Z,54.90
2023-01-31T06:21:31.941Z,54.70
2023-01-31T06:23:59.703Z,54.90
2023-01-31T06:26:26.742Z,54.80
2023-01-31T06:28:53.751Z,54.90
2023-01-31T06:31:20.866Z,55.60
2023-01-31T06:33:48.270Z,55.60
2023-01-31T06:36:18.945Z,56.20
2023-01-31T06:38:52.692Z,55.00
2023-01-31T06:41:20.496Z,55.20
2023-01-31T06:43:47.809Z,55.20
2023-01-31T06:46:15.300Z,54.70
2023-01-31T06:48:42.306Z,54.20
2023-01-31T06:51:09.765Z,55.30
2023-01-31T06:53:36.722Z,55.90
2023-01-31T06:56:03.908Z,55.70
2023-01-31T06:58:31.102Z,55.00
2023-01-31T07:01:03.609Z,55.60
2023-01-31T07:03:30.653Z,54.50
2023-01-31T07:05:57.742Z,55.30
2023-01-31T07:08:24.940Z,55.00
2023-01-31T07:10:52.222Z,55.20
2023-01-31T07:13:20.086Z,55.30
2023-01-31T07:15:47.070Z,55.20
2023-01-31T07:18:14.275Z,55.80
2023-01-31T07:20:42.447Z,55.60
2023-01-31T07:23:09.757Z,55.80
2023-01-31T07:25:36.758Z,55.00
2023-01-31T07:28:04.276Z,55.30
2023-01-31T07:30:32.112Z,55.10
2023-01-31T07:33:00.723Z,53.70
2023-01-31T07:35:28.490Z,53.40
2023-01-31T07:37:55.470Z,53.40
2023-01-31T07:40:22.413Z,53.10
2023-01-31T07:42:49.447Z,53.80
2023-01-31T07:45:23.346Z,54.70
2023-01-31T07:48:00.930Z,53.10
2023-01-31T07:50:28.542Z,53.30
2023-01-31T07:52:58.707Z,53.60
2023-01-31T07:55:27.075Z,53.20
2023-01-31T07:57:54.023Z,53.00
2023-01-31T08:00:40.210Z,52.50
2023-01-31T08:03:33.467Z,53.10
2023-01-31T08:06:19.469Z,52.70
2023-01-31T08:08:47.378Z,52.80
2023-01-31T08:11:14.614Z,52.90
2023-01-31T08:13:41.646Z,53.20
2023-01-31T08:16:10.116Z,52.90
2023-01-31T08:18:38.370Z,52.40
2023-01-31T08:21:06.135Z,53.30
2023-01-31T08:23:43.576Z,52.50
2023-01-31T08:26:14.618Z,52.60
2023-01-31T08:28:44.192Z,53.20
2023-01-31T08:31:20.712Z,53.10
2023-01-31T08:33:47.984Z,52.60
2023-01-31T08:36:18.495Z,52.60
2023-01-31T08:38:46.421Z,52.90
2023-01-31T08:41:14.332Z,53.10
2023-01-31T08:43:58.282Z,53.10
2023-01-31T08:46:30.738Z,53.40
2023-01-31T08:48:58.996Z,53.30
2023-01-31T08:51:26.056Z,52.60
2023-01-31T08:53:54.515Z,52.90
2023-01-31T08:56:25.393Z,53.20
2023-01-31T08:58:53.813Z,52.80
2023-01-31T09:01:22.171Z,52.90
2023-01-31T09:03:50.736Z,52.60
2023-01-31T09:06:20.865Z,52.70
2023-01-31T09:08:48.292Z,52.80
2023-01-31T09:11:19.063Z,52.80
2023-01-31T09:13:49.628Z,52.90
2023-01-31T09:16:16.945Z,53.80
2023-01-31T09:18:44.120Z,53.30
2023-01-31T09:21:12.634Z,53.10
2023-01-31T09:23:42.597Z,52.80
2023-01-31T09:26:11.272Z,52.70
2023-01-31T09:28:38.275Z,53.70
2023-01-31T09:31:08.270Z,53.10
2023-01-31T09:33:36.211Z,52.90
2023-01-31T09:36:12.009Z,53.00
2023-01-31T09:38:39.156Z,53.20
2023-01-31T09:41:47.330Z,53.30
2023-01-31T09:44:25.592Z,52.40
2023-01-31T09:47:09.364Z,53.30
2023-01-31T09:49:46.086Z,53.70
2023-01-31T09:52:13.121Z,53.10
2023-01-31T09:54:41.418Z,52.90
2023-01-31T09:57:08.568Z,52.40
2023-01-31T09:59:47.271Z,52.90
2023-01-31T10:02:20.198Z,52.90
2023-01-31T10:04:59.021Z,52.70
2023-01-31T10:07:45.609Z,53.50
2023-01-31T10:10:47.640Z,52.50
2023-01-31T10:13:18.077Z,53.10
2023-01-31T10:16:06.114Z,52.90
2023-01-31T10:18:38.300Z,53.60
2023-01-31T10:21:19.100Z,53.10
2023-01-31T10:23:54.457Z,52.80
2023-01-31T10:26:29.561Z,53.40
2023-01-31T10:29:29.489Z,53.20
2023-01-31T10:32:04.897Z,53.10
2023-01-31T10:34:42.844Z,53.10
2023-01-31T10:37:32.514Z,53.30
2023-01-31T10:40:25.427Z,53.10
2023-01-31T10:43:00.504Z,53.20
2023-01-31T10:45:31.959Z,53.40
2023-01-31T10:48:12.928Z,53.30
2023-01-31T10:50:46.359Z,52.70
2023-01-31T10:53:28.378Z,52.40
2023-01-31T10:56:06.655Z,52.30
2023-01-31T10:58:35.394Z,53.20
2023-01-31T11:01:08.345Z,53.30
2023-01-31T11:03:35.796Z,53.10
2023-01-31T11:06:02.790Z,52.90
2023-01-31T11:08:43.182Z,52.90
2023-01-31T11:11:13.283Z,52.80
2023-01-31T11:13:40.853Z,52.60
2023-01-31T11:16:12.960Z,52.50
2023-01-31T11:18:49.225Z,52.10
2023-01-31T11:21:22.662Z,52.00
2023-01-31T11:23:51.222Z,52.40
2023-01-31T11:26:31.801Z,51.80
2023-01-31T11:28:59.652Z,52.30
2023-01-31T11:31:34.784Z,52.10
2023-01-31T11:34:17.850Z,51.20
2023-01-31T11:36:48.504Z,51.90
2023-01-31T11:39:33.489Z,51.40
2023-01-31T11:42:17.463Z,51.70
2023-01-31T11:44:57.188Z,51.90
2023-01-31T11:47:49.777Z,51.90
2023-01-31T11:50:26.036Z,52.40
2023-01-31T11:52:59.669Z,52.40
2023-01-31T11:55:28.197Z,52.80
2023-01-31T11:57:58.868Z,52.70
2023-01-31T12:00:32.810Z,51.80
2023-01-31T12:03:14.948Z,51.70
2023-01-31T12:05:45.123Z,51.90
2023-01-31T12:08:33.464Z,52.00
2023-01-31T12:11:03.476Z,52.00
2023-01-31T12:13:30.597Z,52.30
2023-01-31T12:15:58.960Z,52.10
2023-01-31T12:18:40.362Z,52.30
2023-01-31T12:21:15.404Z,53.20
2023-01-31T12:24:01.274Z,52.70
2023-01-31T12:26:37.109Z,52.00
2023-01-31T12:29:27.256Z,52.40
2023-01-31T12:32:03.116Z,52.50
2023-01-31T12:34:29.935Z,52.00
2023-01-31T12:36:56.844Z,52.30
2023-01-31T12:39:56.001Z,52.40
2023-01-31T12:42:40.308Z,52.00
2023-01-31T12:45:48.739Z,52.50
2023-01-31T12:48:34.288Z,52.10
2023-01-31T12:51:27.177Z,52.60
2023-01-31T12:54:00.145Z,52.90
2023-01-31T12:57:07.555Z,53.20
2023-01-31T12:59:51.076Z,53.30
2023-01-31T13:02:25.776Z,53.40
2023-01-31T13:05:04.352Z,53.30
2023-01-31T13:07:39.064Z,53.30
2023-01-31T13:10:31.345Z,53.30
2023-01-31T13:12:59.820Z,53.30
2023-01-31T13:15:39.699Z,53.60
2023-01-31T13:18:07.417Z,53.70
2023-01-31T13:20:42.587Z,54.30
2023-01-31T13:23:22.336Z,54.40
2023-01-31T13:25:57.750Z,54.30
2023-01-31T13:28:35.067Z,54.70
2023-01-31T13:31:10.058Z,55.30
2023-01-31T13:33:54.322Z,54.80
2023-01-31T13:36:47.996Z,55.10
2023-01-31T13:39:32.958Z,55.50
2023-01-31T13:41:59.922Z,55.30
2023-01-31T13:44:26.859Z,55.50
2023-01-31T13:46:53.832Z,55.50
2023-01-31T13:49:37.142Z,55.30
2023-01-31T13:52:15.900Z,55.60
2023-01-31T13:54:53.408Z,56.00
2023-01-31T13:57:31.156Z,56.20
2023-01-31T14:00:24.661Z,55.60
2023-01-31T14:03:08.087Z,55.80
2023-01-31T14:05:44.928Z,55.70
2023-01-31T14:11:33.902Z,55.60
2023-01-31T14:14:09.752Z,56.10
2023-01-31T14:16:40.275Z,55.60
2023-01-31T14:19:19.216Z,55.60
2023-01-31T14:21:58.065Z,55.70
2023-01-31T14:24:53.541Z,55.80
2023-01-31T14:27:31.443Z,55.80
2023-01-31T14:30:08.736Z,56.00
2023-01-31T14:32:50.055Z,55.70
2023-01-31T14:35:16.947Z,55.60
2023-01-31T14:38:08.968Z,55.40
2023-01-31T14:40:51.871Z,54.70
2023-01-31T14:43:21.905Z,54.90
2023-01-31T14:46:08.006Z,55.50
2023-01-31T14:48:47.333Z,55.50
2023-01-31T14:51:37.246Z,55.70
2023-01-31T14:54:22.638Z,56.00
2023-01-31T14:57:15.205Z,56.30
2023-01-31T15:00:04.171Z,56.20
2023-01-31T15:02:31.845Z,56.40
2023-01-31T15:05:07.228Z,56.20
2023-01-31T15:07:34.509Z,56.40
2023-01-31T15:10:52.495Z,56.90
2023-01-31T15:13:54.679Z,56.70
2023-01-31T15:16:21.750Z,56.80
2023-01-31T15:19:04.853Z,56.80
2023-01-31T15:21:40.415Z,56.50
2023-01-31T15:24:34.131Z,56.50
2023-01-31T15:27:03.928Z,56.60
2023-01-31T15:30:04.110Z,56.90
2023-01-31T15:32:53.747Z,57.20
2023-01-31T15:35:40.858Z,57.10
2023-01-31T15:38:25.052Z,57.20
2023-01-31T15:41:46.300Z,56.90
2023-01-31T15:44:22.246Z,56.70
2023-01-31T15:46:58.299Z,57.20
2023-01-31T15:49:39.520Z,57.30
2023-01-31T15:52:18.824Z,57.40
2023-01-31T15:55:06.706Z,57.30
2023-01-31T15:57:44.775Z,57.50
2023-01-31T16:00:27.371Z,57.70
2023-01-31T16:03:01.055Z,57.60
2023-01-31T16:05:32.881Z,58.60
2023-01-31T16:08:17.108Z,57.90
2023-01-31T16:10:45.860Z,57.60
2023-01-31T16:13:14.009Z,57.60
2023-01-31T16:15:41.555Z,57.60
2023-01-31T16:18:12.329Z,57.80
2023-01-31T16:20:44.084Z,57.60
2023-01-31T16:23:25.884Z,57.80
2023-01-31T16:26:01.936Z,57.80
2023-01-31T16:28:36.140Z,57.80
2023-01-31T16:31:12.809Z,57.60
2023-01-31T16:33:48.627Z,57.90
2023-01-31T16:36:23.313Z,58.00
2023-01-31T16:39:04.758Z,57.60
2023-01-31T16:41:53.178Z,57.80
2023-01-31T16:44:22.656Z,57.40
2023-01-31T16:46:50.846Z,57.70
2023-01-31T16:49:21.930Z,57.90
2023-01-31T16:51:50.208Z,57.50
2023-01-31T16:54:25.837Z,57.50
2023-01-31T16:57:07.435Z,57.50
2023-01-31T16:59:34.372Z,57.70
2023-01-31T17:02:05.478Z,57.80
2023-01-31T17:04:32.726Z,57.90
2023-01-31T17:07:09.306Z,57.50
2023-01-31T17:09:36.356Z,57.50
2023-01-31T17:12:04.646Z,57.40
2023-01-31T17:14:34.396Z,57.50
2023-01-31T17:17:09.797Z,57.60
2023-01-31T17:19:39.815Z,57.50
2023-01-31T17:22:06.909Z,57.60
2023-01-31T17:24:33.858Z,57.60
2023-01-31T17:27:01.010Z,57.60
2023-01-31T17:29:28.206Z,59.10
2023-01-31T17:31:55.167Z,59.20
2023-01-31T17:34:22.151Z,58.90
2023-01-31T17:36:49.168Z,58.70
2023-01-31T17:39:16.490Z,58.20
2023-01-31T17:41:46.839Z,57.90
2023-01-31T17:44:15.217Z,58.00
2023-01-31T17:46:43.259Z,57.90
2023-01-31T17:49:10.341Z,58.10
2023-01-31T17:51:37.394Z,58.00
2023-01-31T17:54:04.528Z,57.90
2023-01-31T17:56:31.637Z,57.80
2023-01-31T17:58:58.689Z,57.60
2023-01-31T18:01:25.638Z,57.40
2023-01-31T18:03:52.730Z,57.30
2023-01-31T18:06:19.642Z,57.50
2023-01-31T18:08:46.648Z,57.40
2023-01-31T18:11:16.991Z,57.20
2023-01-31T18:13:44.640Z,57.40
2023-01-31T18:16:15.489Z,57.40
2023-01-31T18:18:46.119Z,57.30
2023-01-31T18:21:19.023Z,57.40
2023-01-31T18:23:54.173Z,57.20
2023-01-31T18:26:22.247Z,57.00
2023-01-31T18:28:49.847Z,56.70
2023-01-31T18:31:18.442Z,56.70
2023-01-31T18:33:47.403Z,55.80
2023-01-31T18:36:17.063Z,56.00
2023-01-31T18:38:45.760Z,56.30
2023-01-31T18:41:14.681Z,56.30
2023-01-31T18:43:42.804Z,56.20
2023-01-31T18:46:10.513Z,56.20
2023-01-31T18:48:39.066Z,56.40
2023-01-31T18:51:09.968Z,56.50
2023-01-31T18:53:39.698Z,56.50
2023-01-31T18:56:10.165Z,56.60
2023-01-31T18:58:39.268Z,56.80
2023-01-31T19:01:12.391Z,57.10
2023-01-31T19:03:40.352Z,56.90
2023-01-31T19:06:19.760Z,57.10
2023-01-31T19:08:54.511Z,56.90
2023-01-31T19:11:23.640Z,57.20
2023-01-31T19:13:51.600Z,57.20
2023-01-31T19:16:24.526Z,57.40
2023-01-31T19:18:51.794Z,57.20
2023-01-31T19:21:30.525Z,57.30
2023-01-31T19:23:59.553Z,57.30
2023-01-31T19:26:27.306Z,57.30
2023-01-31T19:28:54.798Z,57.60
2023-01-31T19:31:24.245Z,57.70
2023-01-31T19:33:53.451Z,57.60
2023-01-31T19:36:23.740Z,57.90
2023-01-31T19:38:51.199Z,57.60
2023-01-31T19:41:22.989Z,57.40
2023-01-31T19:43:54.913Z,57.70
2023-01-31T19:46:23.519Z,58.10
2023-01-31T19:48:50.477Z,58.40
2023-01-31T19:51:23.116Z,58.60
2023-01-31T19:53:50.368Z,58.50
2023-01-31T19:56:17.384Z,58.40
2023-01-31T19:58:44.395Z,58.40
2023-01-31T20:01:16.353Z,58.20
2023-01-31T20:03:44.803Z,58.10
2023-01-31T20:06:13.749Z,57.70
2023-01-31T20:08:40.963Z,57.80
2023-01-31T20:11:08.811Z,57.60
2023-01-31T20:13:36.369Z,57.40
2023-01-31T20:16:08.966Z,57.90
2023-01-31T20:18:37.947Z,58.30
2023-01-31T20:21:06.178Z,58.60
2023-01-31T20:23:33.610Z,58.40
2023-01-31T20:26:00.651Z,58.30
2023-01-31T20:28:27.855Z,58.00
2023-01-31T20:30:55.555Z,58.10
2023-01-31T20:33:22.969Z,58.30
2023-01-31T20:35:50.031Z,58.10
2023-01-31T20:38:18.144Z,58.10
2023-01-31T20:40:52.890Z,58.80
2023-01-31T20:43:21.849Z,58.20
2023-01-31T20:45:49.297Z,58.30
2023-01-31T20:48:17.249Z,58.50
2023-01-31T20:50:44.987Z,58.40
2023-01-31T20:53:21.912Z,58.30
2023-01-31T20:55:59.346Z,58.10
2023-01-31T20:58:27.669Z,58.20
2023-01-31T21:00:55.697Z,58.20
2023-01-31T21:03:23.475Z,58.50
2023-01-31T21:05:51.159Z,58.30
2023-01-31T21:08:18.935Z,58.40
2023-01-31T21:10:54.081Z,58.20
2023-01-31T21:13:21.985Z,58.30
2023-01-31T21:15:54.025Z,58.30
2023-01-31T21:18:22.186Z,58.30
2023-01-31T21:20:49.347Z,58.30
2023-01-31T21:23:16.730Z,58.30
2023-01-31T21:25:44.247Z,58.30
2023-01-31T21:28:11.463Z,58.30
2023-01-31T21:30:38.680Z,58.20
2023-01-31T21:33:05.924Z,58.40
2023-01-31T21:35:32.897Z,58.40
2023-01-31T21:37:59.844Z,58.30
2023-01-31T21:40:26.914Z,58.50
2023-01-31T21:42:54.678Z,58.30
2023-01-31T21:45:39.562Z,58.40
2023-01-31T21:48:27.216Z,58.30
2023-01-31T21:50:54.682Z,58.40
2023-01-31T21:53:21.842Z,58.50
2023-01-31T21:55:48.888Z,58.40
2023-01-31T21:58:16.501Z,58.50
2023-01-31T22:00:44.085Z,58.50
2023-01-31T22:03:11.552Z,58.50
2023-01-31T22:05:38.521Z,58.50
2023-01-31T22:08:05.822Z,58.50
2023-01-31T22:10:32.785Z,58.50
2023-01-31T22:12:59.764Z,58.70
2023-01-31T22:15:26.735Z,59.40
2023-01-31T22:17:53.850Z,59.60
2023-01-31T22:20:21.247Z,59.10
2023-01-31T22:22:48.746Z,59.30
2023-01-31T22:25:15.869Z,59.00
2023-01-31T22:27:43.505Z,59.00
2023-01-31T22:30:16.025Z,59.00
2023-01-31T22:32:43.863Z,59.00
2023-01-31T22:35:11.167Z,58.50
2023-01-31T22:37:38.121Z,58.80
2023-01-31T22:40:05.447Z,58.60
2023-01-31T22:42:32.613Z,58.50
2023-01-31T22:44:59.619Z,58.30
2023-01-31T22:47:26.687Z,58.40
2023-01-31T22:49:53.566Z,58.30
2023-01-31T22:52:20.561Z,58.30
2023-01-31T22:54:47.670Z,58.90
2023-01-31T22:57:15.856Z,58.00
2023-01-31T22:59:42.779Z,57.70
2023-01-31T23:02:09.891Z,57.60
2023-01-31T23:04:36.876Z,57.60
2023-01-31T23:07:03.982Z,57.80
2023-01-31T23:09:30.887Z,57.70
2023-01-31T23:11:57.829Z,57.50
2023-01-31T23:14:24.779Z,57.30
2023-01-31T23:17:10.464Z,57.20
2023-01-31T23:19:37.908Z,57.50
2023-01-31T23:22:04.875Z,57.70
2023-01-31T23:24:31.828Z,58.10
2023-01-31T23:26:58.759Z,57.90
2023-01-31T23:29:25.865Z,58.00
2023-01-31T23:31:52.796Z,58.20
2023-01-31T23:34:19.730Z,58.00
2023-01-31T23:36:46.778Z,58.00
2023-01-31T23:39:13.871Z,58.00
2023-01-31T23:41:40.830Z,58.00
2023-01-31T23:44:07.818Z,58.00
2023-01-31T23:46:34.825Z,58.00
2023-01-31T23:49:01.989Z,58.00
2023-01-31T23:51:31.223Z,58.00
2023-01-31T23:53:58.213Z,58.20
2023-01-31T23:56:26.566Z,58.20
2023-01-31T23:58:53.900Z,58.10
